Time;durP1;ratioP1;P1;durP2;ratioP2;P2;SDS_P1;SDS_P2;PMS_P1;PMS_P2;Temp;Humidity;BMP_temperature;BMP_pressure;BME280_temperature;BME280_humidity;BME280_pressure;Samples;Min_cycle;Max_cycle;Signal;HPM_P1;HPM_P2
2021/10/05 00:00:00;;;;;;;17.23;15.37;;;9.90;99.90;;;;;;5064414;28;20462;-72
2021/10/05 00:02:27;;;;;;;30.13;15.17;;;9.90;99.90;;;;;;5059195;28;20944;-72
2021/10/05 00:04:55;;;;;;;22.00;14.90;;;9.90;99.90;;;;;;5062776;28;20453;-71
2021/10/05 00:07:25;;;;;;;16.60;15.60;;;9.90;99.90;;;;;;5053485;28;20463;-69
2021/10/05 00:09:52;;;;;;;16.67;15.17;;;9.90;99.90;;;;;;5064444;28;20447;-69
2021/10/05 00:12:20;;;;;;;16.47;15.23;;;9.80;99.90;;;;;;5057515;28;21043;-70
2021/10/05 00:14:46;;;;;;;16.90;15.40;;;9.80;99.90;;;;;;5056452;28;20451;-69
2021/10/05 00:17:13;;;;;;;17.30;15.00;;;9.70;99.90;;;;;;5057553;28;20462;-69
2021/10/05 00:19:42;;;;;;;17.23;16.07;;;9.70;99.90;;;;;;5061625;28;20800;-70
2021/10/05 00:22:10;;;;;;;15.87;14.67;;;9.70;99.90;;;;;;5063117;28;20456;-68
2021/10/05 00:24:40;;;;;;;15.67;14.60;;;9.70;99.90;;;;;;5058977;28;20455;-69
2021/10/05 00:27:08;;;;;;;16.53;15.37;;;9.70;99.90;;;;;;5058089;28;20454;-69
2021/10/05 00:29:34;;;;;;;16.13;14.83;;;9.70;99.90;;;;;;5062957;28;20561;-69
2021/10/05 00:32:03;;;;;;;14.90;13.67;;;9.70;99.90;;;;;;5057170;28;20946;-69
2021/10/05 00:34:31;;;;;;;16.40;15.03;;;9.70;99.90;;;;;;5061062;28;20458;-71
2021/10/05 00:37:00;;;;;;;16.03;15.03;;;9.60;99.90;;;;;;5054070;28;20462;-68
2021/10/05 00:39:27;;;;;;;15.47;14.60;;;9.60;99.90;;;;;;5063146;28;20469;-68
2021/10/05 00:41:57;;;;;;;15.10;14.00;;;9.70;99.90;;;;;;5064393;28;20444;-69
2021/10/05 00:44:31;;;;;;;15.37;14.20;;;9.80;99.90;;;;;;5059137;28;21032;-69
2021/10/05 00:47:02;;;;;;;15.43;14.37;;;9.80;99.90;;;;;;5054730;28;20458;-68
2021/10/05 00:49:30;;;;;;;15.37;14.10;;;9.80;99.90;;;;;;5055063;28;20513;-68
2021/10/05 00:51:59;;;;;;;16.00;14.57;;;9.80;99.90;;;;;;5063422;28;20451;-70
2021/10/05 00:54:26;;;;;;;15.63;13.97;;;9.80;99.90;;;;;;5060231;28;20452;-68
2021/10/05 00:56:55;;;;;;;14.90;14.10;;;9.70;99.90;;;;;;5059420;28;20462;-71
2021/10/05 00:59:22;;;;;;;15.20;14.20;;;9.80;99.90;;;;;;5059860;28;20982;-69
2021/10/05 01:01:49;;;;;;;14.10;13.30;;;9.70;99.90;;;;;;5059563;28;20956;-69
2021/10/05 01:04:17;;;;;;;14.53;13.47;;;9.70;99.90;;;;;;5054614;28;20459;-69
2021/10/05 01:06:48;;;;;;;15.10;13.90;;;9.70;99.90;;;;;;5057148;28;20593;-70
2021/10/05 01:09:15;;;;;;;14.83;13.80;;;9.80;99.90;;;;;;5065461;28;20474;-70
2021/10/05 01:11:42;;;;;;;14.63;13.63;;;9.80;99.90;;;;;;5061263;28;20485;-69
2021/10/05 01:14:10;;;;;;;16.07;14.33;;;9.80;99.90;;;;;;5059561;28;20485;-70
2021/10/05 01:16:38;;;;;;;15.57;14.57;;;9.80;99.90;;;;;;5061562;28;20455;-69
2021/10/05 01:19:05;;;;;;;15.90;14.90;;;9.90;99.90;;;;;;5057933;28;20483;-69
2021/10/05 01:21:34;;;;;;;15.73;14.23;;;9.90;99.90;;;;;;5061303;28;20466;-72
2021/10/05 01:24:09;;;;;;;15.10;14.10;;;9.90;99.90;;;;;;5056002;28;20938;-70
2021/10/05 01:26:36;;;;;;;15.37;14.37;;;9.90;99.90;;;;;;5058908;28;20874;-71
2021/10/05 01:29:04;;;;;;;15.43;14.27;;;9.90;99.90;;;;;;5062816;28;20525;-70
2021/10/05 01:31:32;;;;;;;14.90;14.10;;;9.90;99.90;;;;;;5054266;28;20459;-69
2021/10/05 01:34:00;;;;;;;15.30;14.13;;;9.90;99.90;;;;;;5058376;28;20469;-69
2021/10/05 01:36:27;;;;;;;16.10;13.90;;;9.90;99.90;;;;;;5060465;28;20457;-69
2021/10/05 01:38:56;;;;;;;14.83;13.90;;;9.90;99.90;;;;;;5058270;28;20462;-69
2021/10/05 01:41:23;;;;;;;15.97;14.97;;;9.90;99.90;;;;;;5056648;28;20459;-69
2021/10/05 01:43:50;;;;;;;16.47;15.43;;;9.90;99.90;;;;;;5061962;28;20458;-69
2021/10/05 01:46:17;;;;;;;16.47;15.27;;;9.90;99.90;;;;;;5054350;28;20458;-71
2021/10/05 01:48:45;;;;;;;15.67;14.67;;;10.00;99.90;;;;;;5064953;28;20478;-69
2021/10/05 01:51:12;;;;;;;16.37;15.10;;;10.00;99.90;;;;;;5052953;28;20454;-70
2021/10/05 01:53:40;;;;;;;14.80;13.80;;;10.00;99.90;;;;;;5059482;28;20477;-69
2021/10/05 01:56:09;;;;;;;16.73;15.17;;;10.00;99.90;;;;;;5057243;28;20456;-70
2021/10/05 01:58:36;;;;;;;15.93;14.90;;;10.00;99.90;;;;;;5061182;28;20848;-69
2021/10/05 02:01:04;;;;;;;16.97;15.30;;;9.90;99.90;;;;;;5053600;28;20455;-72
2021/10/05 02:03:30;;;;;;;17.20;15.63;;;9.90;99.90;;;;;;5057041;28;20936;-68
2021/10/05 02:05:57;;;;;;;16.93;14.77;;;9.80;99.90;;;;;;5057846;28;20454;-68
2021/10/05 02:08:24;;;;;;;16.27;15.13;;;9.80;99.90;;;;;;5058052;28;20470;-69
2021/10/05 02:10:51;;;;;;;17.00;15.67;;;9.80;99.90;;;;;;5061642;28;20471;-72
2021/10/05 02:13:21;;;;;;;16.30;15.23;;;9.70;99.90;;;;;;5054260;28;20495;-69
2021/10/05 02:15:48;;;;;;;16.97;15.57;;;9.70;99.90;;;;;;5067229;28;20459;-69
2021/10/05 02:18:15;;;;;;;15.17;14.27;;;9.70;99.90;;;;;;5070161;28;20470;-69
2021/10/05 02:20:42;;;;;;;15.87;14.70;;;9.70;99.90;;;;;;5061550;28;20458;-69
2021/10/05 02:23:09;;;;;;;17.33;15.73;;;9.70;99.90;;;;;;5061985;28;20816;-72
2021/10/05 02:25:36;;;;;;;17.23;15.10;;;9.70;99.90;;;;;;5062046;28;20466;-68
2021/10/05 02:28:04;;;;;;;15.90;14.67;;;9.70;99.90;;;;;;5061856;28;20861;-69
2021/10/05 02:30:33;;;;;;;17.27;16.23;;;9.70;99.90;;;;;;5063642;28;20483;-72
2021/10/05 02:33:00;;;;;;;16.27;14.53;;;9.80;99.90;;;;;;5059058;28;20520;-69
2021/10/05 02:35:27;;;;;;;15.63;14.33;;;9.80;99.90;;;;;;5059812;28;20465;-70
2021/10/05 02:37:54;;;;;;;17.43;16.13;;;9.80;99.90;;;;;;5063990;28;21011;-69
2021/10/05 02:40:21;;;;;;;16.07;14.77;;;9.70;99.90;;;;;;5063001;28;20600;-69
2021/10/05 02:42:48;;;;;;;17.27;16.07;;;9.70;99.90;;;;;;5060325;28;20466;-69
2021/10/05 02:45:16;;;;;;;17.13;16.03;;;9.70;99.90;;;;;;5063611;28;20467;-70
2021/10/05 02:47:44;;;;;;;17.67;15.90;;;9.70;99.90;;;;;;5061286;28;20467;-69
2021/10/05 02:50:11;;;;;;;16.33;15.13;;;9.70;99.90;;;;;;5062812;28;20486;-69
2021/10/05 02:52:38;;;;;;;17.30;15.80;;;9.70;99.90;;;;;;5060271;28;20475;-69
2021/10/05 02:55:06;;;;;;;16.60;15.20;;;9.60;99.90;;;;;;5062594;28;20455;-69
2021/10/05 02:57:33;;;;;;;16.70;15.17;;;9.70;99.90;;;;;;5062186;28;20447;-69
2021/10/05 03:00:00;;;;;;;17.83;16.13;;;9.70;99.90;;;;;;5061655;28;20450;-69
2021/10/05 03:02:28;;;;;;;16.60;15.60;;;9.70;99.90;;;;;;5061652;28;20466;-68
2021/10/05 03:04:56;;;;;;;17.50;15.87;;;9.70;99.90;;;;;;5062100;28;20456;-69
2021/10/05 03:07:23;;;;;;;17.10;16.00;;;9.60;99.90;;;;;;5059170;28;20487;-69
2021/10/05 03:09:50;;;;;;;18.50;16.60;;;9.70;99.90;;;;;;5059476;28;21003;-70
2021/10/05 03:12:17;;;;;;;16.50;15.50;;;9.70;99.90;;;;;;5062798;28;21067;-69
2021/10/05 03:14:44;;;;;;;17.70;16.17;;;9.70;99.90;;;;;;5057347;28;20457;-72
2021/10/05 03:17:11;;;;;;;16.00;15.00;;;9.80;99.90;;;;;;5062592;28;20451;-69
2021/10/05 03:19:38;;;;;;;16.70;15.73;;;9.80;99.90;;;;;;5058234;28;20480;-69
2021/10/05 03:22:06;;;;;;;16.83;15.63;;;9.80;99.90;;;;;;5056513;28;20466;-70
2021/10/05 03:24:33;;;;;;;18.27;16.57;;;9.90;99.90;;;;;;5056021;28;20459;-69
2021/10/05 03:26:59;;;;;;;17.03;16.03;;;9.90;99.90;;;;;;5065129;28;20455;-69
2021/10/05 03:29:26;;;;;;;17.60;16.10;;;9.90;99.90;;;;;;5062139;28;20491;-71
2021/10/05 03:31:53;;;;;;;17.20;16.10;;;10.00;99.90;;;;;;5065008;28;20443;-69
2021/10/05 03:34:21;;;;;;;16.17;15.03;;;10.00;99.90;;;;;;5064972;28;20466;-71
2021/10/05 03:36:48;;;;;;;17.30;16.13;;;10.00;99.90;;;;;;5062857;28;20511;-70
2021/10/05 03:39:17;;;;;;;17.10;16.00;;;9.90;99.90;;;;;;5058765;28;20938;-71
2021/10/05 03:41:44;;;;;;;17.37;15.87;;;10.00;99.90;;;;;;5059135;28;20779;-72
2021/10/05 03:44:10;;;;;;;17.93;16.60;;;10.00;99.90;;;;;;5062722;28;20464;-71
2021/10/05 03:46:37;;;;;;;17.13;15.87;;;10.00;99.90;;;;;;5064477;28;20469;-69
2021/10/05 03:49:04;;;;;;;19.17;16.90;;;9.90;99.90;;;;;;5061381;28;20980;-69
2021/10/05 03:51:31;;;;;;;18.07;16.50;;;9.90;99.90;;;;;;5060539;28;20956;-69
2021/10/05 03:53:59;;;;;;;18.17;16.60;;;9.90;99.90;;;;;;5053305;28;20463;-69
2021/10/05 03:56:27;;;;;;;18.00;16.63;;;9.90;99.90;;;;;;5061775;28;20545;-69
2021/10/05 03:58:54;;;;;;;19.87;18.17;;;9.80;99.90;;;;;;5061155;28;20559;-70
2021/10/05 04:01:21;;;;;;;19.27;17.63;;;9.70;99.90;;;;;;5059409;28;20447;-69
2021/10/05 04:03:47;;;;;;;18.40;17.10;;;9.70;99.90;;;;;;5060342;28;20462;-69
2021/10/05 04:06:14;;;;;;;19.13;17.53;;;9.60;99.90;;;;;;5058375;28;20542;-69
2021/10/05 04:08:41;;;;;;;17.87;16.53;;;9.70;99.90;;;;;;5052841;28;20455;-69
2021/10/05 04:11:08;;;;;;;19.40;17.80;;;9.60;99.90;;;;;;5060113;28;21182;-69
2021/10/05 04:13:37;;;;;;;18.07;16.77;;;9.60;99.90;;;;;;5061268;28;20455;-69
2021/10/05 04:16:04;;;;;;;18.00;16.80;;;9.60;99.90;;;;;;5059669;28;20502;-71
2021/10/05 04:18:30;;;;;;;18.90;17.23;;;9.60;99.90;;;;;;5053305;28;20483;-70
2021/10/05 04:20:57;;;;;;;19.37;17.53;;;9.60;99.90;;;;;;5057946;28;20451;-72
2021/10/05 04:23:24;;;;;;;18.23;16.63;;;9.60;99.90;;;;;;5063032;28;20467;-69
2021/10/05 04:25:51;;;;;;;18.10;16.70;;;9.60;99.90;;;;;;5061188;28;20967;-70
2021/10/05 04:28:18;;;;;;;17.83;16.60;;;9.60;99.90;;;;;;5065456;28;20489;-69
2021/10/05 04:30:46;;;;;;;18.40;17.10;;;9.60;99.90;;;;;;5055430;28;20486;-69
2021/10/05 04:33:13;;;;;;;18.33;17.03;;;9.60;99.90;;;;;;5056271;28;20474;-69
2021/10/05 04:35:40;;;;;;;17.27;15.97;;;9.70;99.90;;;;;;5058210;28;20467;-71
2021/10/05 04:38:07;;;;;;;17.30;16.00;;;9.70;99.90;;;;;;5061694;28;20470;-69
2021/10/05 04:40:34;;;;;;;18.33;17.03;;;9.70;99.90;;;;;;5058516;28;20456;-69
2021/10/05 04:43:01;;;;;;;18.70;17.20;;;9.70;99.90;;;;;;5060891;28;20459;-69
2021/10/05 04:45:28;;;;;;;17.60;16.43;;;9.70;99.90;;;;;;5059160;28;21208;-71
2021/10/05 04:47:56;;;;;;;17.30;16.10;;;9.70;99.90;;;;;;5060034;28;20554;-71
2021/10/05 04:50:23;;;;;;;17.77;16.57;;;9.80;99.90;;;;;;5064521;28;21048;-69
2021/10/05 04:52:50;;;;;;;19.13;17.37;;;9.80;99.90;;;;;;5060773;28;20465;-71
2021/10/05 04:55:18;;;;;;;17.00;15.80;;;9.80;99.90;;;;;;5060134;28;20955;-71
2021/10/05 04:57:44;;;;;;;17.93;16.53;;;9.70;99.90;;;;;;5064541;28;20531;-68
2021/10/05 05:00:12;;;;;;;17.90;16.70;;;9.70;99.90;;;;;;5058347;28;20454;-68
2021/10/05 05:02:39;;;;;;;18.70;17.20;;;9.70;99.90;;;;;;5053950;28;20470;-69
2021/10/05 05:05:08;;;;;;;17.90;16.80;;;9.70;99.90;;;;;;5057416;28;20473;-69
2021/10/05 05:07:35;;;;;;;18.63;17.40;;;9.70;99.90;;;;;;5061096;28;20492;-71
2021/10/05 05:10:02;;;;;;;19.13;17.70;;;9.70;99.90;;;;;;5059331;28;20479;-71
2021/10/05 05:12:29;;;;;;;19.30;17.70;;;9.70;99.90;;;;;;5065459;28;20483;-69
2021/10/05 05:14:57;;;;;;;19.50;17.70;;;9.60;99.90;;;;;;5052570;28;20553;-69
2021/10/05 05:17:24;;;;;;;19.33;17.90;;;9.60;99.90;;;;;;5057715;28;20553;-69
2021/10/05 05:19:51;;;;;;;19.03;17.73;;;9.60;99.90;;;;;;5058638;28;20471;-70
2021/10/05 05:22:20;;;;;;;20.40;18.80;;;9.60;99.90;;;;;;5061668;28;20466;-70
2021/10/05 05:24:46;;;;;;;20.30;18.73;;;9.60;99.90;;;;;;5058839;28;20499;-69
2021/10/05 05:27:14;;;;;;;20.70;19.20;;;9.60;99.90;;;;;;5052166;28;20765;-69
2021/10/05 05:29:41;;;;;;;21.20;19.60;;;9.60;99.90;;;;;;5055792;28;20495;-69
2021/10/05 05:32:09;;;;;;;21.40;19.37;;;9.60;99.90;;;;;;5053979;28;20464;-69
2021/10/05 05:34:36;;;;;;;21.17;19.50;;;9.60;99.90;;;;;;5052038;28;20810;-69
2021/10/05 05:37:06;;;;;;;21.67;20.00;;;9.70;99.90;;;;;;5056615;28;20456;-69
2021/10/05 05:39:35;;;;;;;21.37;19.53;;;9.60;99.90;;;;;;5062752;28;20470;-69
2021/10/05 05:42:03;;;;;;;21.73;19.90;;;9.70;99.90;;;;;;5062200;28;20462;-69
2021/10/05 05:44:30;;;;;;;21.20;19.30;;;9.60;99.90;;;;;;5056289;28;20533;-70
2021/10/05 05:46:58;;;;;;;21.23;19.57;;;9.70;99.90;;;;;;5055804;28;20478;-70
2021/10/05 05:49:26;;;;;;;21.00;19.30;;;9.70;99.90;;;;;;5062459;28;20860;-69
2021/10/05 05:51:53;;;;;;;20.93;19.40;;;9.70;99.90;;;;;;5058828;28;20459;-72
2021/10/05 05:54:20;;;;;;;21.17;19.47;;;9.70;99.90;;;;;;5064901;28;20459;-71
2021/10/05 05:56:48;;;;;;;21.17;19.43;;;9.70;99.90;;;;;;5062167;28;20870;-69
2021/10/05 05:59:17;;;;;;;21.87;19.70;;;9.70;99.90;;;;;;5058863;28;20478;-69
2021/10/05 06:01:44;;;;;;;21.80;19.50;;;9.80;99.90;;;;;;5056275;28;20460;-69
2021/10/05 06:04:11;;;;;;;20.23;18.77;;;9.80;99.90;;;;;;5061216;28;20497;-70
2021/10/05 06:06:39;;;;;;;20.97;19.10;;;9.80;99.90;;;;;;5059753;28;20463;-69
2021/10/05 06:09:06;;;;;;;24.10;20.07;;;9.80;99.90;;;;;;5046148;28;20468;-69
2021/10/05 06:11:35;;;;;;;22.40;20.60;;;9.80;99.90;;;;;;5054904;28;20490;-69
2021/10/05 06:14:03;;;;;;;21.60;19.60;;;9.90;99.90;;;;;;5047943;28;21031;-69
2021/10/05 06:16:31;;;;;;;20.87;19.10;;;9.90;99.90;;;;;;5057081;28;20482;-70
2021/10/05 06:18:57;;;;;;;22.67;20.23;;;10.00;99.90;;;;;;5058625;28;20477;-70
2021/10/05 06:21:24;;;;;;;22.47;20.77;;;10.00;99.90;;;;;;5052305;28;20498;-69
2021/10/05 06:23:52;;;;;;;22.00;20.00;;;10.00;99.90;;;;;;5055628;28;20818;-70
2021/10/05 06:26:19;;;;;;;23.03;21.07;;;10.10;99.90;;;;;;5055387;28;20455;-69
2021/10/05 06:28:46;;;;;;;23.60;21.40;;;10.10;99.90;;;;;;5047648;28;20470;-71
2021/10/05 06:31:14;;;;;;;21.90;19.80;;;10.10;99.90;;;;;;5055110;28;20494;-71
2021/10/05 06:33:41;;;;;;;24.17;22.10;;;10.10;99.90;;;;;;5051707;28;20464;-68
2021/10/05 06:36:09;;;;;;;22.93;20.83;;;10.10;99.90;;;;;;5057534;28;20463;-68
2021/10/05 06:38:37;;;;;;;23.80;21.80;;;10.20;99.90;;;;;;5055797;28;20462;-69
2021/10/05 06:41:03;;;;;;;23.10;21.03;;;10.20;99.90;;;;;;5055436;28;20466;-69
2021/10/05 06:43:30;;;;;;;23.57;21.40;;;10.20;99.90;;;;;;5060804;28;20462;-69
2021/10/05 06:45:58;;;;;;;24.47;21.97;;;10.20;99.90;;;;;;5058143;28;20458;-68
2021/10/05 06:48:26;;;;;;;24.20;22.13;;;10.20;99.90;;;;;;5056199;28;20812;-68
2021/10/05 06:50:53;;;;;;;24.10;22.00;;;10.20;99.90;;;;;;5053730;28;20496;-69
2021/10/05 06:53:20;;;;;;;25.73;22.27;;;10.20;99.90;;;;;;5055253;28;20455;-69
2021/10/05 06:55:50;;;;;;;23.07;21.07;;;10.10;99.90;;;;;;5058597;28;20463;-69
2021/10/05 06:58:18;;;;;;;23.47;21.27;;;10.10;99.90;;;;;;5052616;28;20867;-69
2021/10/05 07:00:45;;;;;;;23.80;21.37;;;10.10;99.90;;;;;;5055681;28;20468;-69
2021/10/05 07:03:12;;;;;;;24.87;21.90;;;10.20;99.90;;;;;;5058312;28;20940;-69
2021/10/05 07:05:40;;;;;;;23.37;21.33;;;10.20;99.90;;;;;;5051377;28;20559;-69
2021/10/05 07:08:09;;;;;;;22.90;20.70;;;10.30;99.90;;;;;;5055047;28;20463;-69
2021/10/05 07:10:37;;;;;;;23.97;21.67;;;10.40;99.90;;;;;;5057775;28;20592;-68
2021/10/05 07:13:05;;;;;;;25.50;23.00;;;10.40;99.90;;;;;;5059669;28;20518;-69
2021/10/05 07:15:32;;;;;;;23.30;20.87;;;10.40;99.90;;;;;;5051735;28;20471;-71
2021/10/05 07:18:01;;;;;;;23.53;21.33;;;10.50;99.90;;;;;;5057867;28;20895;-69
2021/10/05 07:20:29;;;;;;;23.13;20.93;;;10.60;99.90;;;;;;5056302;28;20464;-71
2021/10/05 07:22:58;;;;;;;23.60;21.23;;;10.60;99.90;;;;;;5050152;28;20471;-69
2021/10/05 07:25:25;;;;;;;21.90;20.00;;;10.70;99.90;;;;;;5053166;28;20467;-71
2021/10/05 07:27:52;;;;;;;23.73;21.63;;;10.70;99.90;;;;;;5059580;28;20462;-69
2021/10/05 07:30:23;;;;;;;23.37;21.47;;;10.80;99.90;;;;;;5052099;28;20511;-69
2021/10/05 07:32:51;;;;;;;23.03;21.10;;;10.90;99.90;;;;;;5056341;28;20661;-69
2021/10/05 07:35:19;;;;;;;23.30;20.87;;;11.00;99.90;;;;;;5052858;28;20460;-69
2021/10/05 07:37:46;;;;;;;23.50;21.50;;;11.10;99.90;;;;;;5052164;28;20466;-70
2021/10/05 07:40:20;;;;;;;22.73;20.50;;;11.10;99.90;;;;;;5059295;28;20447;-71
2021/10/05 07:42:47;;;;;;;27.50;21.60;;;11.20;99.90;;;;;;5051271;28;20488;-69
2021/10/05 07:45:14;;;;;;;22.17;19.70;;;11.20;99.90;;;;;;5052217;28;20455;-68
2021/10/05 07:47:41;;;;;;;22.00;20.07;;;11.30;99.90;;;;;;5051532;28;20452;-69
2021/10/05 07:50:09;;;;;;;22.93;20.80;;;11.30;99.90;;;;;;5052700;28;20490;-69
2021/10/05 07:52:36;;;;;;;22.77;20.97;;;11.40;99.90;;;;;;5057549;28;20471;-70
2021/10/05 07:55:04;;;;;;;21.77;19.87;;;11.50;99.90;;;;;;5059296;28;20457;-69
2021/10/05 07:57:33;;;;;;;23.57;21.30;;;11.60;99.90;;;;;;5057167;28;20463;-71
2021/10/05 07:59:59;;;;;;;23.53;20.90;;;11.80;99.90;;;;;;5055311;28;20463;-69
2021/10/05 08:02:26;;;;;;;22.53;20.23;;;11.90;99.90;;;;;;5053430;28;20963;-71
2021/10/05 08:04:53;;;;;;;24.13;20.47;;;12.00;99.90;;;;;;5053111;28;20540;-70
2021/10/05 08:07:21;;;;;;;21.67;19.83;;;12.10;99.90;;;;;;5055295;28;20467;-68
2021/10/05 08:09:47;;;;;;;24.80;19.03;;;12.20;99.90;;;;;;5040154;28;20997;-68
2021/10/05 08:12:14;;;;;;;21.60;19.40;;;12.30;99.90;;;;;;5053229;28;20491;-69
2021/10/05 08:14:43;;;;;;;23.80;20.77;;;12.40;99.90;;;;;;5053227;28;20467;-72
2021/10/05 08:17:11;;;;;;;21.47;19.77;;;12.40;99.90;;;;;;5053438;28;20456;-69
2021/10/05 08:19:38;;;;;;;21.83;19.97;;;12.40;99.90;;;;;;5051649;28;20482;-69
2021/10/05 08:22:05;;;;;;;20.47;18.73;;;12.50;99.90;;;;;;5056542;28;20463;-69
2021/10/05 08:24:32;;;;;;;22.57;19.10;;;12.60;99.90;;;;;;5051751;28;21361;-69
2021/10/05 08:26:59;;;;;;;20.40;18.70;;;12.70;99.90;;;;;;5054395;28;20486;-72
2021/10/05 08:29:26;;;;;;;21.90;19.93;;;12.70;99.90;;;;;;5058226;28;20463;-69
2021/10/05 08:31:55;;;;;;;19.63;18.20;;;12.90;99.90;;;;;;5052517;28;20491;-71
2021/10/05 08:34:22;;;;;;;22.50;20.20;;;13.00;99.90;;;;;;5050039;28;20475;-69
2021/10/05 08:36:48;;;;;;;20.57;18.87;;;13.10;99.90;;;;;;5048792;28;20482;-69
2021/10/05 08:39:16;;;;;;;21.97;19.77;;;13.30;99.90;;;;;;5050603;28;20466;-69
2021/10/05 08:41:45;;;;;;;22.20;20.10;;;13.40;99.90;;;;;;5050505;28;20467;-71
2021/10/05 08:44:13;;;;;;;20.87;19.47;;;13.50;99.90;;;;;;5053802;28;20863;-69
2021/10/05 08:46:41;;;;;;;20.87;18.87;;;13.70;99.90;;;;;;5051309;28;20475;-71
2021/10/05 08:49:11;;;;;;;20.93;19.40;;;13.80;99.90;;;;;;5051335;28;20467;-68
2021/10/05 08:51:38;;;;;;;20.60;18.80;;;14.00;99.90;;;;;;5049346;28;20546;-69
2021/10/05 08:54:05;;;;;;;20.90;19.07;;;14.20;99.90;;;;;;5059762;28;20459;-67
2021/10/05 08:56:33;;;;;;;20.23;18.77;;;14.30;99.90;;;;;;5049057;28;20469;-68
2021/10/05 08:59:00;;;;;;;19.53;18.10;;;14.50;99.90;;;;;;5052270;28;20954;-70
2021/10/05 09:01:33;;;;;;;19.23;17.60;;;14.60;99.90;;;;;;5052908;28;20487;-68
2021/10/05 09:04:00;;;;;;;24.40;17.50;;;14.80;99.90;;;;;;5050473;28;20953;-69
2021/10/05 09:06:29;;;;;;;21.93;18.50;;;14.90;99.90;;;;;;5047722;28;20835;-69
2021/10/05 09:08:56;;;;;;;18.30;16.70;;;15.00;99.90;;;;;;5051673;28;20930;-68
2021/10/05 09:11:26;;;;;;;19.37;17.43;;;15.10;99.90;;;;;;5054828;28;20844;-71
2021/10/05 09:13:54;;;;;;;31.83;17.87;;;15.20;99.90;;;;;;5046821;28;20571;-70
2021/10/05 09:16:23;;;;;;;42.33;18.93;;;15.30;99.90;;;;;;5047081;28;20463;-68
2021/10/05 09:18:56;;;;;;;40.73;18.03;;;15.50;99.90;;;;;;5049327;28;20948;-68
2021/10/05 09:21:24;;;;;;;38.60;17.33;;;15.70;99.90;;;;;;5048052;28;20942;-71
2021/10/05 09:24:01;;;;;;;25.87;17.70;;;15.90;99.90;;;;;;5052683;28;20466;-68
2021/10/05 09:26:45;;;;;;;24.13;17.90;;;16.00;99.90;;;;;;5053186;28;20458;-71
2021/10/05 09:29:18;;;;;;;49.87;19.27;;;16.20;99.90;;;;;;5058297;28;20828;-69
2021/10/05 09:31:48;;;;;;;32.43;18.70;;;16.30;99.90;;;;;;5059036;28;20941;-69
2021/10/05 09:34:16;;;;;;;24.20;16.60;;;16.40;99.90;;;;;;5057335;28;20454;-69
2021/10/05 09:36:43;;;;;;;18.33;16.50;;;16.40;99.90;;;;;;5054233;28;20459;-68
2021/10/05 09:39:11;;;;;;;21.90;17.37;;;16.50;99.90;;;;;;5053227;28;20454;-69
2021/10/05 09:41:38;;;;;;;20.43;16.40;;;16.60;99.90;;;;;;5058868;28;20473;-68
2021/10/05 09:44:07;;;;;;;18.20;15.87;;;16.60;99.90;;;;;;5060697;28;20454;-68
2021/10/05 09:46:34;;;;;;;30.03;17.53;;;16.90;99.90;;;;;;5055852;28;20467;-68
2021/10/05 09:49:02;;;;;;;18.10;16.37;;;17.40;99.90;;;;;;5060714;28;20470;-68
2021/10/05 09:51:30;;;;;;;17.00;15.50;;;18.00;99.90;;;;;;5056970;28;20485;-69
2021/10/05 09:53:58;;;;;;;16.57;15.43;;;18.30;99.90;;;;;;5054657;28;20455;-68
2021/10/05 09:56:29;;;;;;;17.53;15.73;;;18.40;99.90;;;;;;5053636;28;20945;-68
2021/10/05 09:58:58;;;;;;;19.93;14.67;;;18.60;99.90;;;;;;5058619;28;20462;-68
2021/10/05 10:01:26;;;;;;;17.30;15.57;;;18.80;99.90;;;;;;5056248;28;20458;-69
2021/10/05 10:03:55;;;;;;;15.83;14.83;;;19.10;99.90;;;;;;5057494;28;21032;-68
2021/10/05 10:06:23;;;;;;;42.37;18.40;;;19.20;99.90;;;;;;5057114;28;20460;-68
2021/10/05 10:08:53;;;;;;;58.50;18.03;;;19.30;99.90;;;;;;5047582;28;21039;-68
2021/10/05 10:11:20;;;;;;;47.93;16.50;;;19.10;99.90;;;;;;5048820;28;20579;-69
2021/10/05 10:13:50;;;;;;;34.37;17.40;;;19.60;99.90;;;;;;5056305;28;20467;-71
2021/10/05 10:16:18;;;;;;;18.70;16.00;;;19.90;99.90;;;;;;5058223;28;21034;-69
2021/10/05 10:18:53;;;;;;;79.27;18.70;;;19.90;99.90;;;;;;5058708;28;20481;-69
2021/10/05 10:21:27;;;;;;;72.87;20.60;;;20.30;99.90;;;;;;5053555;28;20466;-69
2021/10/05 10:24:08;;;;;;;69.33;18.20;;;20.80;99.90;;;;;;5059479;28;20474;-70
2021/10/05 10:26:36;;;;;;;46.03;17.63;;;21.10;99.90;;;;;;5058541;28;20625;-69
2021/10/05 10:29:05;;;;;;;31.90;17.10;;;20.90;99.90;;;;;;5054536;28;20979;-72
2021/10/05 10:31:36;;;;;;;24.07;16.27;;;21.20;99.90;;;;;;5053634;28;20482;-71
2021/10/05 10:34:04;;;;;;;41.57;16.57;;;21.50;99.90;;;;;;5048744;28;20509;-71
2021/10/05 10:36:32;;;;;;;18.43;15.80;;;21.40;99.90;;;;;;5054566;28;20462;-68
2021/10/05 10:39:09;;;;;;;16.43;15.23;;;21.10;99.90;;;;;;5050835;28;20490;-68
2021/10/05 10:41:38;;;;;;;30.33;15.33;;;20.90;99.90;;;;;;5054907;28;20809;-69
2021/10/05 10:44:11;;;;;;;21.27;15.90;;;21.30;99.90;;;;;;5058697;28;20467;-69
2021/10/05 10:46:39;;;;;;;21.00;15.30;;;21.70;99.90;;;;;;5052018;28;20495;-69
2021/10/05 10:49:13;;;;;;;18.20;15.70;;;21.60;99.90;;;;;;5054951;28;20459;-72
2021/10/05 10:51:42;;;;;;;30.77;16.60;;;21.70;99.90;;;;;;5056089;28;20488;-70
2021/10/05 10:54:14;;;;;;;35.60;16.63;;;22.00;99.90;;;;;;5053174;28;21013;-72
2021/10/05 10:56:43;;;;;;;15.97;14.87;;;21.90;99.90;;;;;;5056598;28;20463;-71
2021/10/05 10:59:13;;;;;;;16.77;15.03;;;21.60;99.90;;;;;;5060063;28;20801;-70
2021/10/05 11:01:43;;;;;;;16.80;15.17;;;21.60;99.90;;;;;;5058396;28;20455;-68
2021/10/05 11:04:11;;;;;;;16.57;15.40;;;22.10;99.90;;;;;;5052149;28;20515;-72
2021/10/05 11:06:38;;;;;;;24.73;15.33;;;22.30;99.90;;;;;;5053501;28;20456;-69
2021/10/05 11:09:07;;;;;;;15.97;14.20;;;22.20;99.90;;;;;;5051624;28;20459;-70
2021/10/05 11:11:37;;;;;;;17.30;15.40;;;22.20;99.90;;;;;;5061412;28;20494;-69
2021/10/05 11:14:07;;;;;;;18.47;16.33;;;21.60;99.90;;;;;;5056602;28;20455;-70
2021/10/05 11:16:38;;;;;;;16.90;14.57;;;21.80;99.90;;;;;;5057929;28;21130;-69
2021/10/05 11:19:12;;;;;;;16.93;14.60;;;22.00;99.90;;;;;;5053904;28;20479;-68
2021/10/05 11:21:42;;;;;;;17.00;15.30;;;22.20;99.90;;;;;;5051734;28;20471;-68
2021/10/05 11:24:11;;;;;;;15.17;14.23;;;22.00;99.90;;;;;;5055100;28;20798;-69
2021/10/05 11:26:40;;;;;;;15.60;14.30;;;22.20;99.90;;;;;;5049776;28;20499;-69
2021/10/05 11:29:08;;;;;;;15.70;14.37;;;22.40;99.90;;;;;;5057683;28;20450;-69
2021/10/05 11:31:46;;;;;;;15.30;14.50;;;22.80;99.90;;;;;;5055107;28;20480;-70
2021/10/05 11:34:13;;;;;;;15.23;14.30;;;22.40;99.90;;;;;;5055280;28;20467;-68
2021/10/05 11:36:40;;;;;;;17.53;15.73;;;22.10;99.90;;;;;;5057004;28;20465;-70
2021/10/05 11:39:10;;;;;;;18.03;14.50;;;21.30;99.90;;;;;;5051708;28;20764;-69
2021/10/05 11:41:40;;;;;;;14.90;14.00;;;21.00;99.90;;;;;;5054352;28;20560;-68
2021/10/05 11:44:18;;;;;;;14.73;13.67;;;20.90;99.90;;;;;;5052104;28;20463;-68
2021/10/05 11:47:12;;;;;;;14.97;13.83;;;20.60;99.90;;;;;;5055963;28;20460;-70
2021/10/05 11:49:41;;;;;;;15.10;14.27;;;20.50;99.90;;;;;;5038065;28;20494;-69
2021/10/05 11:52:12;;;;;;;15.67;14.17;;;20.50;99.90;;;;;;5058331;28;20510;-70
2021/10/05 11:54:40;;;;;;;14.77;13.57;;;20.70;99.90;;;;;;5050637;28;20673;-69
2021/10/05 11:57:15;;;;;;;15.10;14.17;;;21.10;99.90;;;;;;5056320;28;20463;-72
2021/10/05 11:59:42;;;;;;;15.00;14.20;;;21.20;99.90;;;;;;5056934;28;20814;-70
2021/10/05 12:02:12;;;;;;;14.47;13.57;;;21.20;99.90;;;;;;5055114;28;20456;-70
2021/10/05 12:04:41;;;;;;;15.77;13.97;;;21.40;99.90;;;;;;5055532;28;20822;-70
2021/10/05 12:07:09;;;;;;;15.37;14.57;;;22.10;99.90;;;;;;5057248;28;20984;-69
2021/10/05 12:09:38;;;;;;;14.50;13.90;;;22.20;99.90;;;;;;5050925;28;20459;-70
2021/10/05 12:12:10;;;;;;;15.77;14.80;;;22.30;99.90;;;;;;5045087;28;20483;-72
2021/10/05 12:14:41;;;;;;;15.70;14.70;;;22.80;99.90;;;;;;5053973;28;21264;-70
2021/10/05 12:17:14;;;;;;;14.43;13.77;;;23.60;99.90;;;;;;5055512;28;20460;-70
2021/10/05 12:19:44;;;;;;;15.03;14.13;;;23.90;99.90;;;;;;5049229;28;21268;-70
2021/10/05 12:22:12;;;;;;;14.20;13.40;;;23.90;99.90;;;;;;5054319;28;20930;-70
2021/10/05 12:24:44;;;;;;;14.60;13.90;;;24.00;99.90;;;;;;5052107;28;20550;-70
2021/10/05 12:27:17;;;;;;;14.93;14.03;;;23.60;99.90;;;;;;5043965;28;20466;-70
2021/10/05 12:29:56;;;;;;;14.57;13.77;;;23.20;99.90;;;;;;5045303;28;20594;-72
2021/10/05 12:32:36;;;;;;;15.00;13.93;;;22.40;99.90;;;;;;5053267;28;20484;-70
2021/10/05 12:35:04;;;;;;;14.80;14.10;;;22.10;99.90;;;;;;5049372;28;20459;-70